createdAt,value
2023-05-01T00:00:06.346Z,217.12
2023-05-01T00:01:06.416Z,216.13
2023-05-01T00:02:06.468Z,221.64
2023-05-01T00:03:06.673Z,221.95
2023-05-01T00:04:06.690Z,221.51
2023-05-01T00:05:06.677Z,218.87
2023-05-01T00:06:06.745Z,217.61
2023-05-01T00:07:06.786Z,218.70
2023-05-01T00:08:06.813Z,215.75
2023-05-01T00:09:06.862Z,219.03
2023-05-01T00:10:06.942Z,217.31
2023-05-01T00:11:06.985Z,214.03
2023-05-01T00:12:07.045Z,212.88
2023-05-01T00:13:07.104Z,210.59
2023-05-01T00:14:07.148Z,210.84
2023-05-01T00:15:07.287Z,213.32
2023-05-01T00:16:07.287Z,216.28
2023-05-01T00:17:07.336Z,219.91
2023-05-01T00:18:07.435Z,214.47
2023-05-01T00:19:07.422Z,212.70
2023-05-01T00:20:07.498Z,214.48
2023-05-01T00:21:07.535Z,214.97
2023-05-01T00:22:07.596Z,212.72
2023-05-01T00:23:07.649Z,210.75
2023-05-01T00:24:07.728Z,210.45
2023-05-01T00:25:07.776Z,212.38
2023-05-01T00:26:07.866Z,217.65
2023-05-01T00:27:07.879Z,218.05
2023-05-01T00:28:07.952Z,217.85
2023-05-01T00:29:08.005Z,218.13
2023-05-01T00:30:08.069Z,215.61
2023-05-01T00:31:08.139Z,209.81
2023-05-01T00:32:08.210Z,215.36
2023-05-01T00:33:08.303Z,214.68
2023-05-01T00:34:08.286Z,219.34
2023-05-01T00:35:08.346Z,220.35
2023-05-01T00:36:08.395Z,220.80
2023-05-01T00:37:08.457Z,216.06
2023-05-01T00:38:08.511Z,214.13
2023-05-01T00:39:08.634Z,212.46
2023-05-01T00:40:08.651Z,215.12
2023-05-01T00:41:08.691Z,219.07
2023-05-01T00:42:08.749Z,221.65
2023-05-01T00:43:08.814Z,219.43
2023-05-01T00:44:08.859Z,213.74
2023-05-01T00:45:08.927Z,215.68
2023-05-01T00:46:09.080Z,219.49
2023-05-01T00:47:09.096Z,222.22
2023-05-01T00:48:09.149Z,219.22
2023-05-01T00:49:09.182Z,217.90
2023-05-01T00:50:09.236Z,215.97
2023-05-01T00:51:09.290Z,220.53
2023-05-01T00:52:09.348Z,226.49
2023-05-01T00:53:09.451Z,225.38
2023-05-01T00:54:09.474Z,222.39
2023-05-01T00:55:09.539Z,221.72
2023-05-01T00:56:09.607Z,223.62
2023-05-01T00:57:09.645Z,223.24
2023-05-01T00:58:09.690Z,226.02
2023-05-01T00:59:09.751Z,221.69
2023-05-01T01:00:09.835Z,219.59
2023-05-01T01:01:09.991Z,220.86
2023-05-01T01:02:09.958Z,220.70
2023-05-01T01:03:10.058Z,222.93
2023-05-01T01:04:10.076Z,222.07
2023-05-01T01:05:10.138Z,225.37
2023-05-01T01:06:10.310Z,221.68
2023-05-01T01:07:10.234Z,223.01
2023-05-01T01:08:10.289Z,223.05
2023-05-01T01:09:10.327Z,225.15
2023-05-01T01:10:10.475Z,221.43
2023-05-01T01:11:10.447Z,226.03
2023-05-01T01:12:10.528Z,222.74
2023-05-01T01:13:10.575Z,225.28
2023-05-01T01:14:10.627Z,231.61
2023-05-01T01:15:10.685Z,227.67
2023-05-01T01:16:10.735Z,224.25
2023-05-01T01:17:10.861Z,229.51
2023-05-01T01:18:10.892Z,226.80
2023-05-01T01:19:10.908Z,226.32
2023-05-01T01:20:11.039Z,229.67
2023-05-01T01:21:11.049Z,227.89
2023-05-01T01:22:11.119Z,231.06
2023-05-01T01:23:11.169Z,227.04
2023-05-01T01:24:11.223Z,224.80
2023-05-01T01:25:11.329Z,227.55
2023-05-01T01:26:11.330Z,223.19
2023-05-01T01:27:11.403Z,225.33
2023-05-01T01:28:11.461Z,223.31
2023-05-01T01:29:11.509Z,225.56
2023-05-01T01:30:11.566Z,223.25
2023-05-01T01:31:11.670Z,227.46
2023-05-01T01:32:11.685Z,223.81
2023-05-01T01:33:11.739Z,224.71
2023-05-01T01:34:11.797Z,225.16
2023-05-01T01:35:37.219Z,25.00
2023-05-01T01:36:37.214Z,25.00
2023-05-01T01:37:37.191Z,25.00
2023-05-01T01:38:37.198Z,25.00
2023-05-01T01:39:37.181Z,25.00
2023-05-01T01:40:37.197Z,32.35
2023-05-01T01:41:37.186Z,32.91
2023-05-01T01:42:37.179Z,29.54
2023-05-01T01:43:37.157Z,24.56
2023-05-01T01:44:37.162Z,29.46
2023-05-01T01:45:37.149Z,30.36
2023-05-01T01:46:37.223Z,29.02
2023-05-01T01:47:37.194Z,30.60
2023-05-01T01:48:37.133Z,27.59
2023-05-01T01:49:37.130Z,34.71
2023-05-01T01:50:37.114Z,33.02
2023-05-01T01:51:37.119Z,29.17
2023-05-01T01:52:37.107Z,27.00
2023-05-01T01:53:37.073Z,29.61
2023-05-01T01:54:37.084Z,32.36
2023-05-01T01:55:37.078Z,28.77
2023-05-01T01:56:37.058Z,35.76
2023-05-01T01:57:37.056Z,32.04
2023-05-01T01:58:37.059Z,33.60
2023-05-01T01:59:37.055Z,32.68
2023-05-01T02:00:37.039Z,38.35
2023-05-01T02:01:37.063Z,32.90
2023-05-01T02:02:37.102Z,27.93
2023-05-01T02:03:37.100Z,27.44
2023-05-01T02:04:37.000Z,32.44
2023-05-01T02:05:37.000Z,34.36
2023-05-01T02:06:37.027Z,35.79
2023-05-01T02:07:37.115Z,30.45
2023-05-01T02:08:36.968Z,31.91
2023-05-01T02:09:36.979Z,29.21
2023-05-01T02:10:36.979Z,34.63
2023-05-01T02:11:36.967Z,37.78
2023-05-01T02:12:36.941Z,37.49
2023-05-01T02:13:36.948Z,33.07
2023-05-01T02:14:36.941Z,31.26
2023-05-01T02:15:36.958Z,36.01
2023-05-01T02:16:37.041Z,38.57
2023-05-01T02:17:37.083Z,36.21
2023-05-01T02:18:37.027Z,30.01
2023-05-01T02:19:37.083Z,30.58
2023-05-01T02:20:37.167Z,32.93
2023-05-01T02:21:37.179Z,37.18
2023-05-01T02:22:37.223Z,42.08
2023-05-01T02:23:37.256Z,40.62
2023-05-01T02:24:37.297Z,42.28
2023-05-01T02:25:37.404Z,46.60
2023-05-01T02:26:37.411Z,43.21
2023-05-01T02:27:37.423Z,48.90
2023-05-01T02:28:37.469Z,46.04
2023-05-01T02:29:37.520Z,47.99
2023-05-01T02:30:37.566Z,42.50
2023-05-01T02:31:37.704Z,42.91
2023-05-01T02:32:37.730Z,43.37
2023-05-01T02:33:37.712Z,44.59
2023-05-01T02:34:37.757Z,45.50
2023-05-01T02:35:37.801Z,47.07
2023-05-01T02:36:37.857Z,54.15
2023-05-01T02:37:37.880Z,52.91
2023-05-01T02:38:37.922Z,52.80
2023-05-01T02:39:37.978Z,52.18
2023-05-01T02:40:38.005Z,56.04
2023-05-01T02:41:38.085Z,54.80
2023-05-01T02:42:38.097Z,56.38
2023-05-01T02:43:38.145Z,58.45
2023-05-01T02:44:38.199Z,56.42
2023-05-01T02:45:38.303Z,59.36
2023-05-01T02:46:38.384Z,56.20
2023-05-01T02:47:38.380Z,57.82
2023-05-01T02:48:38.379Z,56.93
2023-05-01T02:49:38.407Z,58.84
2023-05-01T02:50:38.453Z,57.01
2023-05-01T02:51:38.489Z,58.87
2023-05-01T02:52:38.561Z,62.49
2023-05-01T02:53:38.570Z,58.84
2023-05-01T02:54:38.626Z,63.67
2023-05-01T02:55:38.652Z,69.63
2023-05-01T02:56:38.706Z,66.84
2023-05-01T02:57:38.761Z,62.59
2023-05-01T02:58:38.783Z,62.47
2023-05-01T02:59:38.827Z,65.61
2023-05-01T03:00:38.891Z,61.87
2023-05-01T03:01:38.977Z,64.47
2023-05-01T03:02:39.008Z,61.92
2023-05-01T03:03:39.016Z,65.62
2023-05-01T03:04:39.101Z,66.60
2023-05-01T03:05:39.084Z,61.28
2023-05-01T03:06:39.194Z,64.42
2023-05-01T03:07:39.175Z,65.06
2023-05-01T03:08:39.237Z,68.77
2023-05-01T03:09:39.264Z,65.83
2023-05-01T03:10:39.308Z,64.62
2023-05-01T03:11:39.344Z,67.09
2023-05-01T03:12:39.397Z,64.27
2023-05-01T03:13:39.446Z,55.89
2023-05-01T03:14:39.489Z,61.70
2023-05-01T03:15:39.550Z,63.59
2023-05-01T03:16:39.581Z,62.38
2023-05-01T03:17:39.663Z,67.38
2023-05-01T03:18:39.684Z,63.35
2023-05-01T03:19:39.700Z,62.30
2023-05-01T03:20:39.744Z,66.02
2023-05-01T03:21:39.804Z,63.57
2023-05-01T03:22:39.855Z,62.36
2023-05-01T03:23:39.902Z,60.42
2023-05-01T03:24:39.904Z,65.26
2023-05-01T03:25:39.958Z,61.13
2023-05-01T03:26:40.021Z,65.12
2023-05-01T03:27:40.056Z,65.08
2023-05-01T03:28:40.092Z,63.10
2023-05-01T03:29:40.127Z,59.43
2023-05-01T03:30:40.181Z,62.84
2023-05-01T03:31:40.285Z,64.60
2023-05-01T03:32:40.279Z,65.02
2023-05-01T03:33:40.310Z,65.77
2023-05-01T03:34:40.352Z,66.56
2023-05-01T03:35:40.441Z,62.69
2023-05-01T03:36:40.448Z,62.42
2023-05-01T03:37:40.497Z,64.29
2023-05-01T03:38:40.526Z,64.09
2023-05-01T03:39:40.566Z,64.60
2023-05-01T03:40:40.594Z,65.18
2023-05-01T03:41:40.666Z,63.91
2023-05-01T03:42:40.686Z,62.41
2023-05-01T03:43:40.751Z,58.69
2023-05-01T03:44:40.801Z,59.34
2023-05-01T03:45:42.258Z,60.95
2023-05-01T03:46:40.926Z,65.38
2023-05-01T03:47:40.850Z,70.63
2023-05-01T03:48:40.795Z,63.27
2023-05-01T03:49:40.803Z,61.34
2023-05-01T03:50:40.780Z,59.73
2023-05-01T03:51:40.811Z,60.89
2023-05-01T03:52:40.811Z,62.03
2023-05-01T03:53:40.770Z,64.12
2023-05-01T03:54:40.773Z,63.05
2023-05-01T03:55:40.743Z,65.94
2023-05-01T03:56:40.756Z,61.99
2023-05-01T03:57:40.730Z,62.48
2023-05-01T03:58:40.740Z,64.25
2023-05-01T03:59:40.715Z,61.44
2023-05-01T04:00:40.719Z,63.32
2023-05-01T04:01:40.743Z,58.35
2023-05-01T04:02:40.795Z,61.36
2023-05-01T04:03:40.746Z,64.81
2023-05-01T04:04:40.942Z,64.54
2023-05-01T04:05:40.673Z,64.05
2023-05-01T04:06:40.849Z,67.22
2023-05-01T04:07:40.658Z,65.38
2023-05-01T04:08:40.653Z,67.29
2023-05-01T04:09:40.676Z,67.65
2023-05-01T04:10:40.666Z,65.77
2023-05-01T04:11:40.660Z,67.03
2023-05-01T04:12:40.628Z,65.44
2023-05-01T04:13:40.641Z,67.96
2023-05-01T04:14:40.627Z,67.51
2023-05-01T04:15:40.678Z,66.11
2023-05-01T04:16:40.682Z,68.23
2023-05-01T04:17:40.615Z,61.92
2023-05-01T04:18:40.602Z,66.74
2023-05-01T04:19:40.586Z,70.61
2023-05-01T04:20:40.601Z,73.19
2023-05-01T04:21:40.566Z,70.47
2023-05-01T04:22:40.581Z,72.20
2023-05-01T04:23:40.565Z,70.81
2023-05-01T04:24:40.589Z,68.52
2023-05-01T04:25:40.634Z,72.70
2023-05-01T04:26:40.689Z,81.89
2023-05-01T04:27:40.731Z,76.52
2023-05-01T04:28:40.758Z,74.41
2023-05-01T04:29:40.811Z,73.42
2023-05-01T04:30:40.880Z,72.65
2023-05-01T04:31:41.015Z,77.74
2023-05-01T04:32:40.966Z,73.64
2023-05-01T04:33:41.011Z,72.09
2023-05-01T04:34:41.040Z,70.50
2023-05-01T04:35:41.106Z,73.86
2023-05-01T04:36:41.177Z,77.70
2023-05-01T04:37:41.205Z,77.78
2023-05-01T04:38:41.260Z,71.41
2023-05-01T04:39:41.277Z,73.25
2023-05-01T04:40:41.360Z,75.18
2023-05-01T04:41:41.408Z,76.71
2023-05-01T04:42:41.418Z,76.52
2023-05-01T04:43:41.470Z,74.33
2023-05-01T04:44:41.527Z,75.66
2023-05-01T04:45:41.566Z,78.14
2023-05-01T04:46:41.653Z,74.53
2023-05-01T04:47:41.686Z,73.25
2023-05-01T04:48:41.703Z,73.61
2023-05-01T04:49:41.757Z,78.86
2023-05-01T04:50:41.807Z,76.49
2023-05-01T04:51:41.882Z,74.73
2023-05-01T04:52:42.013Z,77.26
2023-05-01T04:53:41.962Z,74.50
2023-05-01T04:54:41.989Z,77.80
2023-05-01T04:55:42.046Z,80.21
2023-05-01T04:56:42.135Z,79.77
2023-05-01T04:57:42.115Z,81.71
2023-05-01T04:58:42.180Z,80.69
2023-05-01T04:59:42.197Z,82.07
2023-05-01T05:00:42.249Z,81.25
2023-05-01T05:01:42.385Z,81.20
2023-05-01T05:02:42.390Z,81.78
2023-05-01T05:03:42.588Z,81.52
2023-05-01T05:04:42.412Z,78.71
2023-05-01T05:05:42.448Z,80.90
2023-05-01T05:06:42.662Z,75.21
2023-05-01T05:07:42.524Z,83.50
2023-05-01T05:08:42.573Z,84.64
2023-05-01T05:09:42.612Z,86.49
2023-05-01T05:10:42.666Z,83.92
2023-05-01T05:11:42.738Z,83.84
2023-05-01T05:12:42.753Z,81.95
2023-05-01T05:13:42.787Z,85.61
2023-05-01T05:14:42.844Z,87.22
2023-05-01T05:15:42.879Z,85.47
2023-05-01T05:16:42.988Z,85.68
2023-05-01T05:17:43.018Z,84.62
2023-05-01T05:18:43.026Z,89.48
2023-05-01T05:19:43.070Z,89.59
2023-05-01T05:20:43.112Z,86.56
2023-05-01T05:21:43.176Z,87.95
2023-05-01T05:22:43.184Z,86.17
2023-05-01T05:23:43.236Z,86.34
2023-05-01T05:24:43.278Z,81.86
2023-05-01T05:25:43.318Z,84.21
2023-05-01T05:26:43.377Z,87.14
2023-05-01T05:27:43.413Z,87.38
2023-05-01T05:28:43.441Z,86.13
2023-05-01T05:29:43.498Z,82.76
2023-05-01T05:30:43.547Z,86.63
2023-05-01T05:31:43.644Z,89.65
2023-05-01T05:32:43.643Z,87.49
2023-05-01T05:33:43.664Z,85.52
2023-05-01T05:34:43.721Z,87.59
2023-05-01T05:35:43.742Z,87.10
2023-05-01T05:36:43.805Z,87.35
2023-05-01T05:37:45.334Z,85.35
2023-05-01T05:38:43.872Z,87.47
2023-05-01T05:39:43.913Z,85.57
2023-05-01T05:40:43.973Z,84.70
2023-05-01T05:41:44.032Z,86.55
2023-05-01T05:42:44.047Z,85.50
2023-05-01T05:43:44.101Z,85.62
2023-05-01T05:44:44.149Z,84.56
2023-05-01T05:45:44.186Z,83.00
2023-05-01T05:46:44.257Z,89.59
2023-05-01T05:47:44.296Z,89.40
2023-05-01T05:48:44.303Z,87.81
2023-05-01T05:49:44.348Z,85.12
2023-05-01T05:50:44.401Z,81.11
2023-05-01T05:51:44.467Z,83.65
2023-05-01T05:52:44.494Z,84.22
2023-05-01T05:53:44.518Z,86.53
2023-05-01T05:54:44.575Z,83.45
2023-05-01T05:55:44.620Z,81.99
2023-05-01T05:56:44.666Z,81.28
2023-05-01T05:57:44.716Z,80.99
2023-05-01T05:58:44.764Z,82.24
2023-05-01T05:59:44.778Z,81.14
2023-05-01T06:00:44.825Z,81.01
2023-05-01T06:01:44.910Z,85.23
2023-05-01T06:02:45.054Z,83.26
2023-05-01T06:03:44.987Z,81.70
2023-05-01T06:04:45.004Z,79.98
2023-05-01T06:05:45.141Z,76.71
2023-05-01T06:06:45.126Z,82.34
2023-05-01T06:07:45.127Z,81.23
2023-05-01T06:08:45.188Z,75.50
2023-05-01T06:09:45.213Z,75.33
2023-05-01T06:10:45.272Z,75.56
2023-05-01T06:11:45.342Z,75.51
2023-05-01T06:12:52.032Z,79.35
2023-05-01T06:13:46.359Z,79.54
2023-05-01T06:14:45.352Z,79.64
2023-05-01T06:15:45.402Z,78.75
2023-05-01T06:16:45.338Z,78.86
2023-05-01T06:17:45.357Z,76.81
2023-05-01T06:18:46.053Z,73.02
2023-05-01T06:19:45.304Z,78.90
2023-05-01T06:20:45.308Z,80.25
2023-05-01T06:21:45.326Z,76.48
2023-05-01T06:22:45.303Z,74.62
2023-05-01T06:23:45.283Z,77.24
2023-05-01T06:24:45.321Z,75.02
2023-05-01T06:25:45.324Z,73.78
2023-05-01T06:26:45.375Z,71.81
2023-05-01T06:27:45.436Z,73.43
2023-05-01T06:28:45.478Z,72.43
2023-05-01T06:29:45.525Z,73.57
2023-05-01T06:30:45.564Z,71.68
2023-05-01T06:31:45.642Z,74.91
2023-05-01T06:32:45.664Z,71.80
2023-05-01T06:33:45.697Z,68.76
2023-05-01T06:34:45.746Z,67.33
2023-05-01T06:35:45.766Z,70.98
2023-05-01T06:36:45.809Z,67.52
2023-05-01T06:37:45.866Z,65.57
2023-05-01T06:38:45.905Z,71.48
2023-05-01T06:39:45.950Z,70.56
2023-05-01T06:40:45.981Z,65.10
2023-05-01T06:41:46.033Z,66.44
2023-05-01T06:42:46.061Z,63.51
2023-05-01T06:43:46.134Z,65.71
2023-05-01T06:44:46.137Z,63.38
2023-05-01T06:45:46.225Z,62.15
2023-05-01T06:46:46.282Z,62.26
2023-05-01T06:47:46.308Z,63.56
2023-05-01T06:48:46.310Z,60.38
2023-05-01T06:49:46.352Z,61.47
2023-05-01T06:50:46.390Z,62.53
2023-05-01T06:51:46.434Z,61.08
2023-05-01T06:52:46.465Z,59.54
2023-05-01T06:53:46.501Z,57.85
2023-05-01T06:54:46.544Z,58.38
2023-05-01T06:55:46.576Z,56.93
2023-05-01T06:56:46.629Z,59.90
2023-05-01T06:57:46.635Z,60.36
2023-05-01T06:58:46.680Z,63.20
2023-05-01T06:59:46.729Z,59.09
2023-05-01T07:00:46.789Z,58.36
2023-05-01T07:01:46.842Z,58.43
2023-05-01T07:02:46.963Z,60.56
2023-05-01T07:03:46.874Z,63.38
2023-05-01T07:04:46.890Z,60.68
2023-05-01T07:05:46.944Z,59.66
2023-05-01T07:06:47.024Z,63.36
2023-05-01T07:07:58.019Z,62.67
2023-05-01T07:08:48.020Z,62.93
2023-05-01T07:09:47.009Z,62.77
2023-05-01T07:10:46.989Z,62.83
2023-05-01T07:11:46.993Z,63.28
2023-05-01T07:12:46.994Z,61.08
2023-05-01T07:13:46.975Z,59.68
2023-05-01T07:14:46.965Z,55.76
2023-05-01T07:15:46.946Z,60.60
2023-05-01T07:16:46.992Z,56.83
2023-05-01T07:17:46.990Z,56.49
2023-05-01T07:18:46.939Z,59.40
2023-05-01T07:19:46.916Z,57.94
2023-05-01T07:20:46.921Z,60.54
2023-05-01T07:21:46.935Z,60.11
2023-05-01T07:22:46.937Z,56.63
2023-05-01T07:23:46.971Z,59.01
2023-05-01T07:24:47.003Z,58.15
2023-05-01T07:25:47.032Z,60.04
2023-05-01T07:26:47.076Z,54.48
2023-05-01T07:27:47.126Z,53.41
2023-05-01T07:28:47.188Z,57.71
2023-05-01T07:29:47.201Z,57.11
2023-05-01T07:30:47.216Z,54.13
2023-05-01T07:31:47.305Z,53.87
2023-05-01T07:32:47.325Z,53.61
2023-05-01T07:33:47.354Z,48.36
2023-05-01T07:34:47.389Z,51.66
2023-05-01T07:35:47.438Z,54.35
2023-05-01T07:36:47.468Z,50.15
2023-05-01T07:37:47.493Z,51.56
2023-05-01T07:38:47.533Z,47.81
2023-05-01T07:39:47.587Z,49.92
2023-05-01T07:40:47.619Z,50.10
2023-05-01T07:41:47.652Z,50.98
2023-05-01T07:42:47.689Z,50.73
2023-05-01T07:43:47.722Z,50.37
2023-05-01T07:44:47.758Z,48.13
2023-05-01T07:45:47.810Z,49.03
2023-05-01T07:46:47.820Z,48.74
2023-05-01T07:47:47.971Z,53.60
2023-05-01T07:48:47.897Z,52.64
2023-05-01T07:49:47.955Z,50.38
2023-05-01T07:50:47.977Z,49.87
2023-05-01T07:51:48.017Z,53.71
2023-05-01T07:52:48.076Z,52.56
2023-05-01T07:53:48.080Z,54.19
2023-05-01T07:54:48.102Z,54.18
2023-05-01T07:55:48.137Z,52.05
2023-05-01T07:56:49.692Z,49.50
2023-05-01T07:57:48.245Z,54.93
2023-05-01T07:58:48.245Z,49.05
2023-05-01T07:59:48.269Z,44.95
2023-05-01T08:00:48.315Z,48.73
2023-05-01T08:01:48.355Z,50.50
2023-05-01T08:02:48.530Z,49.55
2023-05-01T08:03:50.341Z,51.19
2023-05-01T08:04:48.490Z,52.32
2023-05-01T08:05:48.381Z,58.78
2023-05-01T08:06:48.410Z,52.51
2023-05-01T08:07:48.381Z,51.57
2023-05-01T08:08:48.359Z,52.25
2023-05-01T08:09:48.356Z,51.65
2023-05-01T08:10:48.360Z,54.36
2023-05-01T08:11:48.356Z,66.56
2023-05-01T08:12:48.359Z,66.31
2023-05-01T08:13:48.373Z,69.75
2023-05-01T08:14:48.322Z,72.18
2023-05-01T08:15:48.348Z,70.11
2023-05-01T08:16:48.588Z,73.84
2023-05-01T08:17:48.375Z,74.00
2023-05-01T08:18:48.315Z,72.19
2023-05-01T08:19:48.299Z,76.26
2023-05-01T08:20:48.325Z,73.79
2023-05-01T08:21:48.276Z,69.64
2023-05-01T08:22:48.286Z,69.71
2023-05-01T08:23:48.267Z,62.59
2023-05-01T08:24:48.258Z,64.80
2023-05-01T08:25:48.248Z,63.27
2023-05-01T08:26:48.249Z,57.90
2023-05-01T08:27:48.241Z,59.85
2023-05-01T08:28:48.242Z,58.37
2023-05-01T08:29:48.219Z,56.54
2023-05-01T08:30:48.226Z,52.32
2023-05-01T08:31:48.259Z,54.54
2023-05-01T08:32:48.292Z,54.29
2023-05-01T08:33:48.193Z,49.91
2023-05-01T08:34:48.184Z,54.05
2023-05-01T08:35:48.174Z,57.68
2023-05-01T08:36:48.186Z,49.68
2023-05-01T08:37:48.157Z,51.69
2023-05-01T08:38:48.149Z,51.49
2023-05-01T08:39:48.140Z,52.58
2023-05-01T08:40:48.162Z,48.93
2023-05-01T08:41:48.128Z,50.77
2023-05-01T08:42:48.140Z,54.33
2023-05-01T08:43:48.132Z,46.06
2023-05-01T08:44:48.107Z,43.48
2023-05-01T08:45:48.110Z,39.79
2023-05-01T08:46:48.134Z,48.95
2023-05-01T08:47:48.117Z,44.98
2023-05-01T08:48:48.092Z,45.09
2023-05-01T08:49:48.101Z,47.31
2023-05-01T08:50:48.068Z,54.27
2023-05-01T08:51:48.060Z,48.30
2023-05-01T08:52:48.068Z,46.14
2023-05-01T08:53:48.058Z,49.10
2023-05-01T08:54:48.053Z,49.71
2023-05-01T08:55:48.054Z,47.48
2023-05-01T08:56:48.021Z,46.51
2023-05-01T08:57:48.018Z,50.13
2023-05-01T08:58:48.029Z,46.47
2023-05-01T08:59:48.011Z,46.77
2023-05-01T09:00:48.004Z,39.23
2023-05-01T09:01:48.002Z,41.38
2023-05-01T09:02:48.029Z,36.07
2023-05-01T09:03:48.052Z,40.70
2023-05-01T09:04:47.989Z,38.82
2023-05-01T09:05:47.963Z,36.27
2023-05-01T09:06:48.061Z,34.81
2023-05-01T09:07:47.972Z,33.87
2023-05-01T09:08:47.957Z,37.46
2023-05-01T09:09:47.949Z,37.38
2023-05-01T09:10:47.918Z,31.04
2023-05-01T09:11:47.916Z,34.13
2023-05-01T09:12:47.906Z,34.67
2023-05-01T09:13:47.907Z,33.02
2023-05-01T09:14:47.924Z,25.87
2023-05-01T09:15:47.906Z,31.41
2023-05-01T09:16:47.996Z,31.21
2023-05-01T09:17:47.946Z,29.12
2023-05-01T09:18:47.892Z,25.00
2023-05-01T09:19:47.881Z,30.66
2023-05-01T09:20:47.876Z,33.48
2023-05-01T09:21:47.853Z,31.74
2023-05-01T09:22:47.864Z,32.36
2023-05-01T09:23:47.852Z,28.18
2023-05-01T09:24:47.830Z,25.00
2023-05-01T09:25:48.610Z,26.96
2023-05-01T09:26:47.812Z,26.32
2023-05-01T09:27:47.824Z,29.28
2023-05-01T09:28:47.808Z,37.59
2023-05-01T09:29:47.850Z,36.60
2023-05-01T09:30:47.805Z,30.56
2023-05-01T09:31:47.812Z,34.09
2023-05-01T09:32:47.803Z,37.73
2023-05-01T09:33:47.780Z,36.54
2023-05-01T09:34:47.788Z,43.51
2023-05-01T09:35:47.816Z,45.29
2023-05-01T09:36:47.838Z,42.85
2023-05-01T09:37:48.101Z,48.44
2023-05-01T09:38:47.894Z,43.25
2023-05-01T09:39:47.958Z,48.47
2023-05-01T09:40:47.968Z,52.07
2023-05-01T09:41:48.009Z,54.20
2023-05-01T09:42:48.072Z,53.06
2023-05-01T09:43:48.123Z,46.83
2023-05-01T09:44:48.155Z,48.54
2023-05-01T09:45:48.219Z,42.70
2023-05-01T09:46:48.258Z,40.73
2023-05-01T09:47:48.364Z,42.82
2023-05-01T09:48:48.342Z,34.58
2023-05-01T09:49:48.433Z,37.79
2023-05-01T09:50:48.440Z,40.53
2023-05-01T09:51:48.510Z,41.01
2023-05-01T09:52:48.537Z,39.84
2023-05-01T09:53:48.591Z,37.80
2023-05-01T09:54:48.651Z,34.95
2023-05-01T09:55:48.705Z,35.66
2023-05-01T09:56:48.778Z,35.15
2023-05-01T09:57:48.787Z,32.44
2023-05-01T09:58:48.856Z,26.98
2023-05-01T09:59:48.924Z,25.47
2023-05-01T10:00:49.069Z,30.30
2023-05-01T10:01:49.161Z,31.97
2023-05-01T10:02:49.221Z,28.88
2023-05-01T10:03:49.346Z,29.64
2023-05-01T10:04:49.216Z,35.45
2023-05-01T10:05:49.273Z,30.42
2023-05-01T10:06:49.381Z,34.79
2023-05-01T10:07:49.370Z,27.14
2023-05-01T10:08:49.450Z,25.00
2023-05-01T10:09:49.500Z,30.43
2023-05-01T10:10:49.538Z,33.53
2023-05-01T10:11:49.734Z,29.11
2023-05-01T10:12:49.664Z,35.34
2023-05-01T10:13:49.713Z,37.61
2023-05-01T10:14:49.787Z,34.69
2023-05-01T10:15:49.829Z,35.81
2023-05-01T10:16:49.975Z,27.23
2023-05-01T10:17:50.016Z,34.56
2023-05-01T10:18:50.012Z,38.81
2023-05-01T10:19:50.054Z,30.08
2023-05-01T10:20:50.146Z,25.80
2023-05-01T10:21:50.186Z,27.02
2023-05-01T10:22:50.271Z,25.39
2023-05-01T10:23:50.301Z,25.75
2023-05-01T10:24:50.348Z,29.84
2023-05-01T10:25:50.418Z,35.10
2023-05-01T10:26:50.481Z,30.88
2023-05-01T10:27:50.554Z,31.14
2023-05-01T10:28:50.577Z,25.00
2023-05-01T10:29:50.626Z,31.18
2023-05-01T10:30:50.756Z,28.02
2023-05-01T10:31:50.806Z,28.14
2023-05-01T10:32:50.880Z,26.75
2023-05-01T10:33:50.875Z,29.36
2023-05-01T10:34:50.923Z,28.37
2023-05-01T10:35:50.970Z,27.40
2023-05-01T10:36:51.040Z,25.70
2023-05-01T10:37:51.102Z,26.95
2023-05-01T10:38:51.146Z,28.00
2023-05-01T10:39:51.184Z,25.85
2023-05-01T10:40:51.259Z,28.62
2023-05-01T10:41:51.295Z,27.40
2023-05-01T10:42:51.366Z,29.37
2023-05-01T10:43:51.403Z,28.03
2023-05-01T10:44:51.436Z,29.92
2023-05-01T10:45:51.509Z,28.83
2023-05-01T10:46:51.720Z,25.54
2023-05-01T10:47:51.744Z,29.87
2023-05-01T10:48:51.639Z,31.93
2023-05-01T10:49:51.654Z,29.22
2023-05-01T10:50:51.712Z,26.32
2023-05-01T10:51:51.827Z,27.05
2023-05-01T10:52:51.823Z,27.94
2023-05-01T10:53:51.850Z,30.99
2023-05-01T10:54:51.883Z,30.26
2023-05-01T10:55:51.939Z,32.68
2023-05-01T10:56:51.984Z,29.11
2023-05-01T10:57:52.023Z,33.43
2023-05-01T10:58:52.088Z,32.87
2023-05-01T10:59:52.111Z,32.52
2023-05-01T11:00:52.164Z,35.48
2023-05-01T11:01:52.354Z,32.72
2023-05-01T11:02:52.286Z,31.08
2023-05-01T11:03:52.329Z,27.37
2023-05-01T11:04:52.415Z,27.75
2023-05-01T11:05:52.460Z,26.96
2023-05-01T11:06:52.485Z,28.29
2023-05-01T11:07:52.527Z,34.57
2023-05-01T11:08:52.574Z,25.94
2023-05-01T11:09:52.644Z,26.43
2023-05-01T11:10:52.671Z,31.93
2023-05-01T11:11:52.722Z,30.22
2023-05-01T11:12:52.802Z,30.19
2023-05-01T11:13:52.836Z,33.45
2023-05-01T11:14:52.877Z,30.27
2023-05-01T11:15:52.919Z,25.75
2023-05-01T11:16:53.066Z,25.40
2023-05-01T11:17:53.061Z,27.14
2023-05-01T11:18:53.061Z,25.00
2023-05-01T11:19:53.121Z,28.69
2023-05-01T11:20:53.176Z,32.34
2023-05-01T11:21:53.207Z,28.45
2023-05-01T11:22:53.269Z,31.74
2023-05-01T11:23:53.306Z,25.34
2023-05-01T11:24:53.349Z,33.46
2023-05-01T11:25:53.411Z,29.22
2023-05-01T11:26:53.438Z,26.57
2023-05-01T11:27:53.512Z,28.19
2023-05-01T11:28:53.542Z,25.93
2023-05-01T11:29:53.590Z,28.10
2023-05-01T11:30:53.626Z,27.50
2023-05-01T11:31:53.749Z,25.72
2023-05-01T11:32:53.749Z,31.45
2023-05-01T11:33:53.761Z,32.19
2023-05-01T11:34:53.863Z,28.02
2023-05-01T11:35:53.855Z,34.37
2023-05-01T11:36:53.925Z,27.17
2023-05-01T11:37:53.985Z,25.21
2023-05-01T11:38:54.002Z,27.42
2023-05-01T11:39:54.048Z,34.14
2023-05-01T11:40:54.100Z,33.15
2023-05-01T11:41:54.172Z,34.17
2023-05-01T11:42:54.226Z,34.96
2023-05-01T11:43:54.246Z,33.24
2023-05-01T11:44:54.481Z,26.53
2023-05-01T11:45:54.474Z,34.56
2023-05-01T11:46:54.375Z,36.56
2023-05-01T11:47:54.545Z,33.75
2023-05-01T11:48:54.496Z,29.69
2023-05-01T11:49:54.535Z,30.30
2023-05-01T11:50:54.588Z,26.84
2023-05-01T11:51:54.627Z,27.54
2023-05-01T11:52:54.705Z,32.07
2023-05-01T11:53:54.714Z,29.58
2023-05-01T11:54:54.774Z,35.03
2023-05-01T11:55:54.824Z,26.57
2023-05-01T11:56:54.875Z,34.07
2023-05-01T11:57:54.942Z,36.36
2023-05-01T11:58:54.973Z,28.47
2023-05-01T11:59:55.008Z,40.59
2023-05-01T12:00:55.066Z,42.62
2023-05-01T12:01:55.160Z,48.13
2023-05-01T12:02:55.228Z,48.54
2023-05-01T12:03:55.315Z,45.65
2023-05-01T12:04:55.532Z,41.47
2023-05-01T12:05:55.316Z,42.97
2023-05-01T12:06:55.428Z,41.26
2023-05-01T12:07:55.457Z,44.72
2023-05-01T12:08:55.488Z,37.06
2023-05-01T12:09:55.542Z,37.07
2023-05-01T12:10:55.582Z,47.38
2023-05-01T12:11:55.639Z,52.22
2023-05-01T12:12:55.737Z,45.90
2023-05-01T12:13:55.741Z,45.00
2023-05-01T12:14:56.040Z,27.55
2023-05-01T12:15:55.902Z,44.17
2023-05-01T12:16:55.973Z,45.56
2023-05-01T12:17:56.014Z,51.89
2023-05-01T12:18:56.021Z,54.07
2023-05-01T12:19:56.080Z,57.73
2023-05-01T12:20:56.166Z,56.07
2023-05-01T12:21:56.181Z,47.27
2023-05-01T12:22:56.259Z,46.03
2023-05-01T12:23:56.278Z,49.86
2023-05-01T12:24:56.571Z,43.60
2023-05-01T12:25:56.367Z,49.83
2023-05-01T12:26:56.425Z,53.94
2023-05-01T12:27:56.499Z,51.36
2023-05-01T12:28:56.521Z,43.98
2023-05-01T12:29:56.555Z,42.22
2023-05-01T12:30:56.608Z,40.90
2023-05-01T12:31:56.705Z,39.15
2023-05-01T12:32:56.757Z,41.10
2023-05-01T12:33:56.758Z,43.90
2023-05-01T12:34:56.950Z,44.96
2023-05-01T12:35:56.859Z,51.32
2023-05-01T12:36:56.913Z,57.51
2023-05-01T12:37:56.984Z,50.77
2023-05-01T12:38:57.014Z,50.20
2023-05-01T12:39:57.037Z,46.85
2023-05-01T12:40:57.083Z,49.12
2023-05-01T12:41:57.144Z,51.65
2023-05-01T12:42:57.223Z,53.47
2023-05-01T12:43:57.239Z,59.12
2023-05-01T12:44:57.471Z,55.64
2023-05-01T12:45:57.364Z,53.43
2023-05-01T12:46:57.455Z,54.66
2023-05-01T12:47:57.508Z,51.41
2023-05-01T12:48:57.428Z,49.93
2023-05-01T12:49:57.634Z,54.31